sensor_id;sensor_type;location;lat;lon;timestamp;temperature;humidity
53978;DHT22;39886;47.984;-1.586;2022-07-10T00:02:09;25.60;56.40
53978;DHT22;39886;47.984;-1.586;2022-07-10T00:04:34;25.60;56.50
53978;DHT22;39886;47.984;-1.586;2022-07-10T00:07:00;25.60;56.50
53978;DHT22;39886;47.984;-1.586;2022-07-10T00:09:27;25.60;56.50
53978;DHT22;39886;47.984;-1.586;2022-07-10T00:11:53;25.60;56.50
53978;DHT22;39886;47.984;-1.586;2022-07-10T00:14:19;25.60;56.50
53978;DHT22;39886;47.984;-1.586;2022-07-10T00:16:45;25.60;56.50
53978;DHT22;39886;47.984;-1.586;2022-07-10T00:19:11;25.60;56.50
53978;DHT22;39886;47.984;-1.586;2022-07-10T00:21:36;25.60;56.60
53978;DHT22;39886;47.984;-1.586;2022-07-10T00:24:02;25.60;56.60
53978;DHT22;39886;47.984;-1.586;2022-07-10T00:26:28;25.50;56.50
53978;DHT22;39886;47.984;-1.586;2022-07-10T00:28:53;25.50;56.60
53978;DHT22;39886;47.984;-1.586;2022-07-10T00:31:20;25.50;56.60
53978;DHT22;39886;47.984;-1.586;2022-07-10T00:33:46;25.50;56.60
53978;DHT22;39886;47.984;-1.586;2022-07-10T00:36:13;25.50;56.60
53978;DHT22;39886;47.984;-1.586;2022-07-10T00:38:39;25.50;56.60
53978;DHT22;39886;47.984;-1.586;2022-07-10T00:41:04;25.40;56.60
53978;DHT22;39886;47.984;-1.586;2022-07-10T00:43:30;25.40;56.60
53978;DHT22;39886;47.984;-1.586;2022-07-10T00:45:55;25.40;56.60
53978;DHT22;39886;47.984;-1.586;2022-07-10T00:48:21;25.40;56.60
53978;DHT22;39886;47.984;-1.586;2022-07-10T00:50:46;25.40;56.60
53978;DHT22;39886;47.984;-1.586;2022-07-10T00:53:12;25.40;56.70
53978;DHT22;39886;47.984;-1.586;2022-07-10T00:55:38;25.30;56.60
53978;DHT22;39886;47.984;-1.586;2022-07-10T00:58:07;25.30;56.70
53978;DHT22;39886;47.984;-1.586;2022-07-10T01:00:34;25.30;56.70
53978;DHT22;39886;47.984;-1.586;2022-07-10T01:03:00;25.30;56.70
53978;DHT22;39886;47.984;-1.586;2022-07-10T01:05:26;25.30;56.80
53978;DHT22;39886;47.984;-1.586;2022-07-10T01:07:51;25.30;56.80
53978;DHT22;39886;47.984;-1.586;2022-07-10T01:10:17;25.30;56.80
53978;DHT22;39886;47.984;-1.586;2022-07-10T01:12:42;25.30;56.80
53978;DHT22;39886;47.984;-1.586;2022-07-10T01:15:09;25.30;56.90
53978;DHT22;39886;47.984;-1.586;2022-07-10T01:17:34;25.20;56.90
53978;DHT22;39886;47.984;-1.586;2022-07-10T01:20:04;25.20;56.90
53978;DHT22;39886;47.984;-1.586;2022-07-10T01:22:30;25.20;56.90
53978;DHT22;39886;47.984;-1.586;2022-07-10T01:24:56;25.20;57.00
53978;DHT22;39886;47.984;-1.586;2022-07-10T01:27:21;25.20;57.00
53978;DHT22;39886;47.984;-1.586;2022-07-10T01:29:47;25.20;57.00
53978;DHT22;39886;47.984;-1.586;2022-07-10T01:32:12;25.20;57.00
53978;DHT22;39886;47.984;-1.586;2022-07-10T01:34:38;25.20;57.00
53978;DHT22;39886;47.984;-1.586;2022-07-10T01:37:05;25.10;57.00
53978;DHT22;39886;47.984;-1.586;2022-07-10T01:39:30;25.10;57.00
53978;DHT22;39886;47.984;-1.586;2022-07-10T01:41:56;25.10;57.00
53978;DHT22;39886;47.984;-1.586;2022-07-10T01:44:21;25.10;57.10
53978;DHT22;39886;47.984;-1.586;2022-07-10T01:46:47;25.10;57.10
53978;DHT22;39886;47.984;-1.586;2022-07-10T01:49:14;25.10;57.10
53978;DHT22;39886;47.984;-1.586;2022-07-10T01:51:40;25.10;57.10
53978;DHT22;39886;47.984;-1.586;2022-07-10T01:54:06;25.10;57.10
53978;DHT22;39886;47.984;-1.586;2022-07-10T01:56:31;25.10;57.20
53978;DHT22;39886;47.984;-1.586;2022-07-10T01:58:57;25.10;57.20
53978;DHT22;39886;47.984;-1.586;2022-07-10T02:01:25;25.00;57.10
53978;DHT22;39886;47.984;-1.586;2022-07-10T02:03:51;25.00;57.20
53978;DHT22;39886;47.984;-1.586;2022-07-10T02:06:34;25.00;57.20
53978;DHT22;39886;47.984;-1.586;2022-07-10T02:09:00;25.00;57.20
53978;DHT22;39886;47.984;-1.586;2022-07-10T02:11:26;25.00;57.20
53978;DHT22;39886;47.984;-1.586;2022-07-10T02:13:51;25.00;57.30
53978;DHT22;39886;47.984;-1.586;2022-07-10T02:16:17;25.00;57.30
53978;DHT22;39886;47.984;-1.586;2022-07-10T02:18:42;25.00;57.30
53978;DHT22;39886;47.984;-1.586;2022-07-10T02:21:08;24.90;57.40
53978;DHT22;39886;47.984;-1.586;2022-07-10T02:23:34;24.90;57.50
53978;DHT22;39886;47.984;-1.586;2022-07-10T02:25:59;24.90;57.50
53978;DHT22;39886;47.984;-1.586;2022-07-10T02:28:25;24.90;57.40
53978;DHT22;39886;47.984;-1.586;2022-07-10T02:30:51;24.90;57.40
53978;DHT22;39886;47.984;-1.586;2022-07-10T02:33:16;24.90;57.40
53978;DHT22;39886;47.984;-1.586;2022-07-10T02:35:42;24.90;57.50
53978;DHT22;39886;47.984;-1.586;2022-07-10T02:38:07;24.90;57.50
53978;DHT22;39886;47.984;-1.586;2022-07-10T02:40:33;24.80;57.40
53978;DHT22;39886;47.984;-1.586;2022-07-10T02:42:58;24.90;57.50
53978;DHT22;39886;47.984;-1.586;2022-07-10T02:45:24;24.90;57.50
53978;DHT22;39886;47.984;-1.586;2022-07-10T02:47:50;24.80;57.50
53978;DHT22;39886;47.984;-1.586;2022-07-10T02:50:15;24.80;57.50
53978;DHT22;39886;47.984;-1.586;2022-07-10T02:52:41;24.80;57.50
53978;DHT22;39886;47.984;-1.586;2022-07-10T02:55:06;24.80;57.50
53978;DHT22;39886;47.984;-1.586;2022-07-10T02:57:32;24.80;57.50
53978;DHT22;39886;47.984;-1.586;2022-07-10T02:59:58;24.80;57.60
53978;DHT22;39886;47.984;-1.586;2022-07-10T03:02:23;24.80;58.20
53978;DHT22;39886;47.984;-1.586;2022-07-10T03:04:49;24.80;57.60
53978;DHT22;39886;47.984;-1.586;2022-07-10T03:07:14;24.80;57.70
53978;DHT22;39886;47.984;-1.586;2022-07-10T03:09:40;24.80;57.70
53978;DHT22;39886;47.984;-1.586;2022-07-10T03:12:06;24.80;57.70
53978;DHT22;39886;47.984;-1.586;2022-07-10T03:14:32;24.80;57.70
53978;DHT22;39886;47.984;-1.586;2022-07-10T03:16:57;24.70;57.70
53978;DHT22;39886;47.984;-1.586;2022-07-10T03:19:23;24.70;57.70
53978;DHT22;39886;47.984;-1.586;2022-07-10T03:21:48;24.70;57.80
53978;DHT22;39886;47.984;-1.586;2022-07-10T03:24:14;24.70;57.80
53978;DHT22;39886;47.984;-1.586;2022-07-10T03:26:39;24.70;57.70
53978;DHT22;39886;47.984;-1.586;2022-07-10T03:29:05;24.70;57.80
53978;DHT22;39886;47.984;-1.586;2022-07-10T03:31:31;24.70;57.80
53978;DHT22;39886;47.984;-1.586;2022-07-10T03:33:57;24.70;57.80
53978;DHT22;39886;47.984;-1.586;2022-07-10T03:36:22;24.60;57.80
53978;DHT22;39886;47.984;-1.586;2022-07-10T03:38:48;24.70;57.90
53978;DHT22;39886;47.984;-1.586;2022-07-10T03:41:14;24.60;57.80
53978;DHT22;39886;47.984;-1.586;2022-07-10T03:43:39;24.60;57.90
53978;DHT22;39886;47.984;-1.586;2022-07-10T03:46:05;24.60;57.90
53978;DHT22;39886;47.984;-1.586;2022-07-10T03:48:31;24.60;57.90
53978;DHT22;39886;47.984;-1.586;2022-07-10T03:50:57;24.60;57.90
53978;DHT22;39886;47.984;-1.586;2022-07-10T03:53:24;24.60;57.90
53978;DHT22;39886;47.984;-1.586;2022-07-10T03:55:49;24.60;58.00
53978;DHT22;39886;47.984;-1.586;2022-07-10T03:58:15;24.60;58.00
53978;DHT22;39886;47.984;-1.586;2022-07-10T04:00:40;24.60;58.00
53978;DHT22;39886;47.984;-1.586;2022-07-10T04:03:07;24.50;58.00
53978;DHT22;39886;47.984;-1.586;2022-07-10T04:05:33;24.50;58.00
53978;DHT22;39886;47.984;-1.586;2022-07-10T04:07:59;24.50;58.00
53978;DHT22;39886;47.984;-1.586;2022-07-10T04:10:25;24.50;58.00
53978;DHT22;39886;47.984;-1.586;2022-07-10T04:12:51;24.50;58.00
53978;DHT22;39886;47.984;-1.586;2022-07-10T04:15:17;24.50;58.00
53978;DHT22;39886;47.984;-1.586;2022-07-10T04:17:42;24.50;58.00
53978;DHT22;39886;47.984;-1.586;2022-07-10T04:20:08;24.50;58.10
53978;DHT22;39886;47.984;-1.586;2022-07-10T04:22:34;24.50;58.10
53978;DHT22;39886;47.984;-1.586;2022-07-10T04:25:00;24.50;58.10
53978;DHT22;39886;47.984;-1.586;2022-07-10T04:27:25;24.40;58.10
53978;DHT22;39886;47.984;-1.586;2022-07-10T04:29:51;24.50;58.10
53978;DHT22;39886;47.984;-1.586;2022-07-10T04:32:16;24.50;58.10
53978;DHT22;39886;47.984;-1.586;2022-07-10T04:34:42;24.50;58.20
53978;DHT22;39886;47.984;-1.586;2022-07-10T04:37:08;24.50;58.20
53978;DHT22;39886;47.984;-1.586;2022-07-10T04:39:34;24.50;58.20
53978;DHT22;39886;47.984;-1.586;2022-07-10T04:42:00;24.40;58.10
53978;DHT22;39886;47.984;-1.586;2022-07-10T04:44:26;24.50;58.10
53978;DHT22;39886;47.984;-1.586;2022-07-10T04:46:52;24.50;58.10
53978;DHT22;39886;47.984;-1.586;2022-07-10T04:49:18;24.50;58.10
53978;DHT22;39886;47.984;-1.586;2022-07-10T04:51:44;24.40;58.00
53978;DHT22;39886;47.984;-1.586;2022-07-10T04:54:09;24.50;58.10
53978;DHT22;39886;47.984;-1.586;2022-07-10T04:56:35;24.40;58.00
53978;DHT22;39886;47.984;-1.586;2022-07-10T04:59:00;24.40;58.10
53978;DHT22;39886;47.984;-1.586;2022-07-10T05:01:26;24.50;58.10
53978;DHT22;39886;47.984;-1.586;2022-07-10T05:03:52;24.50;58.00
53978;DHT22;39886;47.984;-1.586;2022-07-10T05:06:17;24.50;58.00
53978;DHT22;39886;47.984;-1.586;2022-07-10T05:08:43;24.50;58.00
53978;DHT22;39886;47.984;-1.586;2022-07-10T05:11:09;24.50;58.00
53978;DHT22;39886;47.984;-1.586;2022-07-10T05:13:34;24.50;58.10
53978;DHT22;39886;47.984;-1.586;2022-07-10T05:16:00;24.50;58.10
53978;DHT22;39886;47.984;-1.586;2022-07-10T05:18:25;24.50;58.10
53978;DHT22;39886;47.984;-1.586;2022-07-10T05:20:51;24.50;58.00
53978;DHT22;39886;47.984;-1.586;2022-07-10T05:23:17;24.50;57.90
53978;DHT22;39886;47.984;-1.586;2022-07-10T05:25:42;24.50;57.90
53978;DHT22;39886;47.984;-1.586;2022-07-10T05:28:08;24.60;57.90
53978;DHT22;39886;47.984;-1.586;2022-07-10T05:30:33;24.60;57.90
53978;DHT22;39886;47.984;-1.586;2022-07-10T05:32:59;24.60;57.90
53978;DHT22;39886;47.984;-1.586;2022-07-10T05:35:25;24.60;57.90
53978;DHT22;39886;47.984;-1.586;2022-07-10T05:37:51;24.70;58.00
53978;DHT22;39886;47.984;-1.586;2022-07-10T05:40:17;24.60;57.90
53978;DHT22;39886;47.984;-1.586;2022-07-10T05:42:43;24.70;58.00
53978;DHT22;39886;47.984;-1.586;2022-07-10T05:45:10;24.70;58.00
53978;DHT22;39886;47.984;-1.586;2022-07-10T05:47:36;24.80;58.00
53978;DHT22;39886;47.984;-1.586;2022-07-10T05:50:02;24.80;58.00
53978;DHT22;39886;47.984;-1.586;2022-07-10T05:52:27;24.80;58.00
53978;DHT22;39886;47.984;-1.586;2022-07-10T05:54:53;24.80;57.90
53978;DHT22;39886;47.984;-1.586;2022-07-10T05:57:18;24.80;57.90
53978;DHT22;39886;47.984;-1.586;2022-07-10T05:59:44;24.80;57.80
53978;DHT22;39886;47.984;-1.586;2022-07-10T06:02:10;24.90;57.90
53978;DHT22;39886;47.984;-1.586;2022-07-10T06:04:36;24.90;57.80
53978;DHT22;39886;47.984;-1.586;2022-07-10T06:07:01;25.00;57.90
53978;DHT22;39886;47.984;-1.586;2022-07-10T06:09:27;25.00;57.80
53978;DHT22;39886;47.984;-1.586;2022-07-10T06:11:53;25.00;57.80
53978;DHT22;39886;47.984;-1.586;2022-07-10T06:14:18;25.00;57.70
53978;DHT22;39886;47.984;-1.586;2022-07-10T06:16:44;25.10;57.80
53978;DHT22;39886;47.984;-1.586;2022-07-10T06:19:10;25.10;57.70
53978;DHT22;39886;47.984;-1.586;2022-07-10T06:21:35;25.10;57.70
53978;DHT22;39886;47.984;-1.586;2022-07-10T06:24:01;25.20;57.70
53978;DHT22;39886;47.984;-1.586;2022-07-10T06:26:26;25.20;57.60
53978;DHT22;39886;47.984;-1.586;2022-07-10T06:28:52;25.30;57.70
53978;DHT22;39886;47.984;-1.586;2022-07-10T06:31:17;25.30;57.60
53978;DHT22;39886;47.984;-1.586;2022-07-10T06:33:43;25.30;57.50
53978;DHT22;39886;47.984;-1.586;2022-07-10T06:36:09;25.30;57.50
53978;DHT22;39886;47.984;-1.586;2022-07-10T06:38:34;25.40;57.50
53978;DHT22;39886;47.984;-1.586;2022-07-10T06:41:00;25.40;57.50
53978;DHT22;39886;47.984;-1.586;2022-07-10T06:43:26;25.50;57.50
53978;DHT22;39886;47.984;-1.586;2022-07-10T06:45:51;25.50;57.40
53978;DHT22;39886;47.984;-1.586;2022-07-10T06:48:17;25.60;57.40
53978;DHT22;39886;47.984;-1.586;2022-07-10T06:50:43;25.60;57.40
53978;DHT22;39886;47.984;-1.586;2022-07-10T06:53:08;25.60;57.30
53978;DHT22;39886;47.984;-1.586;2022-07-10T06:55:34;25.60;57.30
53978;DHT22;39886;47.984;-1.586;2022-07-10T06:58:00;25.60;57.20
53978;DHT22;39886;47.984;-1.586;2022-07-10T07:00:25;25.70;57.20
53978;DHT22;39886;47.984;-1.586;2022-07-10T07:02:51;25.70;57.20
53978;DHT22;39886;47.984;-1.586;2022-07-10T07:05:17;25.80;57.10
53978;DHT22;39886;47.984;-1.586;2022-07-10T07:07:42;25.80;57.10
53978;DHT22;39886;47.984;-1.586;2022-07-10T07:10:10;25.80;57.10
53978;DHT22;39886;47.984;-1.586;2022-07-10T07:12:36;25.80;57.00
53978;DHT22;39886;47.984;-1.586;2022-07-10T07:15:02;25.90;57.00
53978;DHT22;39886;47.984;-1.586;2022-07-10T07:17:28;25.90;57.00
53978;DHT22;39886;47.984;-1.586;2022-07-10T07:20:01;25.90;56.90
53978;DHT22;39886;47.984;-1.586;2022-07-10T07:22:45;26.00;56.80
53978;DHT22;39886;47.984;-1.586;2022-07-10T07:25:29;26.00;56.80
53978;DHT22;39886;47.984;-1.586;2022-07-10T07:27:55;26.00;56.70
53978;DHT22;39886;47.984;-1.586;2022-07-10T07:30:20;26.10;56.80
53978;DHT22;39886;47.984;-1.586;2022-07-10T07:32:46;26.10;56.70
53978;DHT22;39886;47.984;-1.586;2022-07-10T07:35:13;26.10;56.60
53978;DHT22;39886;47.984;-1.586;2022-07-10T07:37:39;26.20;57.30
53978;DHT22;39886;47.984;-1.586;2022-07-10T07:40:06;26.20;56.50
53978;DHT22;39886;47.984;-1.586;2022-07-10T07:42:32;26.20;56.40
53978;DHT22;39886;47.984;-1.586;2022-07-10T07:44:57;26.30;56.50
53978;DHT22;39886;47.984;-1.586;2022-07-10T07:47:23;26.30;56.40
53978;DHT22;39886;47.984;-1.586;2022-07-10T07:49:49;26.30;56.30
53978;DHT22;39886;47.984;-1.586;2022-07-10T07:52:14;26.30;56.30
53978;DHT22;39886;47.984;-1.586;2022-07-10T07:54:40;26.30;56.20
53978;DHT22;39886;47.984;-1.586;2022-07-10T07:57:06;26.40;56.20
53978;DHT22;39886;47.984;-1.586;2022-07-10T07:59:31;26.40;56.10
53978;DHT22;39886;47.984;-1.586;2022-07-10T08:01:57;26.40;56.10
53978;DHT22;39886;47.984;-1.586;2022-07-10T08:04:22;26.50;56.10
53978;DHT22;39886;47.984;-1.586;2022-07-10T08:06:48;26.50;56.00
53978;DHT22;39886;47.984;-1.586;2022-07-10T08:09:17;26.50;55.90
53978;DHT22;39886;47.984;-1.586;2022-07-10T08:11:43;26.60;55.90
53978;DHT22;39886;47.984;-1.586;2022-07-10T08:14:09;26.60;55.80
53978;DHT22;39886;47.984;-1.586;2022-07-10T08:16:34;26.60;55.80
53978;DHT22;39886;47.984;-1.586;2022-07-10T08:19:00;26.70;55.70
53978;DHT22;39886;47.984;-1.586;2022-07-10T08:21:25;26.70;55.70
53978;DHT22;39886;47.984;-1.586;2022-07-10T08:23:51;26.70;55.60
53978;DHT22;39886;47.984;-1.586;2022-07-10T08:26:19;26.80;55.60
53978;DHT22;39886;47.984;-1.586;2022-07-10T08:28:44;26.80;55.50
53978;DHT22;39886;47.984;-1.586;2022-07-10T08:31:10;26.80;55.50
53978;DHT22;39886;47.984;-1.586;2022-07-10T08:33:35;26.80;55.40
53978;DHT22;39886;47.984;-1.586;2022-07-10T08:36:01;26.80;55.30
53978;DHT22;39886;47.984;-1.586;2022-07-10T08:38:26;26.90;55.30
53978;DHT22;39886;47.984;-1.586;2022-07-10T08:40:53;26.90;55.20
53978;DHT22;39886;47.984;-1.586;2022-07-10T08:43:22;26.90;55.10
53978;DHT22;39886;47.984;-1.586;2022-07-10T08:45:48;27.00;55.20
53978;DHT22;39886;47.984;-1.586;2022-07-10T08:48:15;27.00;55.00
53978;DHT22;39886;47.984;-1.586;2022-07-10T08:50:44;27.00;55.00
53978;DHT22;39886;47.984;-1.586;2022-07-10T08:53:16;27.00;54.90
53978;DHT22;39886;47.984;-1.586;2022-07-10T08:55:44;27.10;54.90
53978;DHT22;39886;47.984;-1.586;2022-07-10T08:58:10;27.10;54.90
53978;DHT22;39886;47.984;-1.586;2022-07-10T09:00:37;27.10;54.80
53978;DHT22;39886;47.984;-1.586;2022-07-10T09:03:02;27.20;54.70
53978;DHT22;39886;47.984;-1.586;2022-07-10T09:05:28;27.20;54.60
53978;DHT22;39886;47.984;-1.586;2022-07-10T09:07:54;27.20;54.60
53978;DHT22;39886;47.984;-1.586;2022-07-10T09:10:20;27.20;54.50
53978;DHT22;39886;47.984;-1.586;2022-07-10T09:15:28;27.30;54.50
53978;DHT22;39886;47.984;-1.586;2022-07-10T09:18:00;27.30;54.40
53978;DHT22;39886;47.984;-1.586;2022-07-10T09:20:27;27.30;54.30
53978;DHT22;39886;47.984;-1.586;2022-07-10T09:22:53;27.30;54.20
53978;DHT22;39886;47.984;-1.586;2022-07-10T09:25:19;27.40;54.20
53978;DHT22;39886;47.984;-1.586;2022-07-10T09:27:51;27.40;54.20
53978;DHT22;39886;47.984;-1.586;2022-07-10T09:30:51;27.40;54.10
53978;DHT22;39886;47.984;-1.586;2022-07-10T09:33:26;27.40;54.10
53978;DHT22;39886;47.984;-1.586;2022-07-10T09:35:59;27.50;54.10
53978;DHT22;39886;47.984;-1.586;2022-07-10T09:44:05;27.50;53.70
53978;DHT22;39886;47.984;-1.586;2022-07-10T09:46:32;27.60;53.60
53978;DHT22;39886;47.984;-1.586;2022-07-10T09:49:01;27.60;53.60
53978;DHT22;39886;47.984;-1.586;2022-07-10T09:51:29;27.60;53.60
53978;DHT22;39886;47.984;-1.586;2022-07-10T09:53:55;27.60;53.40
53978;DHT22;39886;47.984;-1.586;2022-07-10T09:56:21;27.60;53.40
53978;DHT22;39886;47.984;-1.586;2022-07-10T09:58:48;27.60;53.30
53978;DHT22;39886;47.984;-1.586;2022-07-10T10:01:17;27.60;53.20
53978;DHT22;39886;47.984;-1.586;2022-07-10T10:03:43;27.70;53.00
53978;DHT22;39886;47.984;-1.586;2022-07-10T10:06:16;27.70;53.10
53978;DHT22;39886;47.984;-1.586;2022-07-10T10:08:46;27.70;53.20
53978;DHT22;39886;47.984;-1.586;2022-07-10T10:11:17;27.70;52.90
53978;DHT22;39886;47.984;-1.586;2022-07-10T10:13:45;27.70;52.90
53978;DHT22;39886;47.984;-1.586;2022-07-10T10:16:11;27.70;52.80
53978;DHT22;39886;47.984;-1.586;2022-07-10T10:18:37;27.70;52.90
53978;DHT22;39886;47.984;-1.586;2022-07-10T10:21:23;27.70;52.80
53978;DHT22;39886;47.984;-1.586;2022-07-10T10:23:50;27.70;52.80
53978;DHT22;39886;47.984;-1.586;2022-07-10T10:26:16;27.70;52.70
53978;DHT22;39886;47.984;-1.586;2022-07-10T10:28:43;27.70;52.80
53978;DHT22;39886;47.984;-1.586;2022-07-10T10:31:08;27.80;52.80
53978;DHT22;39886;47.984;-1.586;2022-07-10T10:36:02;27.80;52.70
53978;DHT22;39886;47.984;-1.586;2022-07-10T10:44:26;27.80;52.50
53978;DHT22;39886;47.984;-1.586;2022-07-10T10:49:19;27.80;52.40
53978;DHT22;39886;47.984;-1.586;2022-07-10T10:52:01;27.80;52.30
53978;DHT22;39886;47.984;-1.586;2022-07-10T10:54:28;27.80;52.30
53978;DHT22;39886;47.984;-1.586;2022-07-10T10:57:14;27.80;52.30
53978;DHT22;39886;47.984;-1.586;2022-07-10T10:59:52;27.80;52.20
53978;DHT22;39886;47.984;-1.586;2022-07-10T11:02:24;27.80;52.10
53978;DHT22;39886;47.984;-1.586;2022-07-10T11:04:50;27.80;52.20
53978;DHT22;39886;47.984;-1.586;2022-07-10T11:11:00;27.80;52.10
53978;DHT22;39886;47.984;-1.586;2022-07-10T11:12:58;27.80;51.90
53978;DHT22;39886;47.984;-1.586;2022-07-10T11:15:24;27.80;51.80
53978;DHT22;39886;47.984;-1.586;2022-07-10T11:17:50;27.80;51.80
53978;DHT22;39886;47.984;-1.586;2022-07-10T11:20:16;27.80;51.90
53978;DHT22;39886;47.984;-1.586;2022-07-10T11:23:06;27.80;51.90
53978;DHT22;39886;47.984;-1.586;2022-07-10T11:25:39;27.80;51.90
53978;DHT22;39886;47.984;-1.586;2022-07-10T11:28:09;27.80;51.80
53978;DHT22;39886;47.984;-1.586;2022-07-10T11:33:28;27.80;51.70
53978;DHT22;39886;47.984;-1.586;2022-07-10T11:35:54;27.80;51.70
53978;DHT22;39886;47.984;-1.586;2022-07-10T11:38:24;27.80;51.60
53978;DHT22;39886;47.984;-1.586;2022-07-10T11:40:51;27.80;51.70
53978;DHT22;39886;47.984;-1.586;2022-07-10T11:43:19;27.80;51.60
53978;DHT22;39886;47.984;-1.586;2022-07-10T11:45:47;27.80;51.60
53978;DHT22;39886;47.984;-1.586;2022-07-10T11:48:16;27.80;51.50
53978;DHT22;39886;47.984;-1.586;2022-07-10T11:50:42;27.80;51.60
53978;DHT22;39886;47.984;-1.586;2022-07-10T11:53:08;27.80;51.60
53978;DHT22;39886;47.984;-1.586;2022-07-10T11:55:34;27.80;51.50
53978;DHT22;39886;47.984;-1.586;2022-07-10T11:58:15;27.80;51.50
53978;DHT22;39886;47.984;-1.586;2022-07-10T12:00:41;27.80;51.40
53978;DHT22;39886;47.984;-1.586;2022-07-10T12:03:20;27.70;51.40
53978;DHT22;39886;47.984;-1.586;2022-07-10T12:05:46;27.80;51.40
53978;DHT22;39886;47.984;-1.586;2022-07-10T12:08:12;27.70;51.30
53978;DHT22;39886;47.984;-1.586;2022-07-10T12:10:41;27.70;51.20
53978;DHT22;39886;47.984;-1.586;2022-07-10T12:13:11;27.70;51.20
53978;DHT22;39886;47.984;-1.586;2022-07-10T12:15:41;27.80;51.30
53978;DHT22;39886;47.984;-1.586;2022-07-10T12:18:07;27.70;51.20
53978;DHT22;39886;47.984;-1.586;2022-07-10T12:20:33;27.80;51.30
53978;DHT22;39886;47.984;-1.586;2022-07-10T12:22:59;27.70;51.30
53978;DHT22;39886;47.984;-1.586;2022-07-10T12:25:25;27.70;51.30
53978;DHT22;39886;47.984;-1.586;2022-07-10T12:27:57;27.70;51.30
53978;DHT22;39886;47.984;-1.586;2022-07-10T12:30:24;27.70;51.30
53978;DHT22;39886;47.984;-1.586;2022-07-10T12:33:05;27.80;51.40
53978;DHT22;39886;47.984;-1.586;2022-07-10T12:35:32;27.70;51.30
53978;DHT22;39886;47.984;-1.586;2022-07-10T12:37:57;27.70;51.20
53978;DHT22;39886;47.984;-1.586;2022-07-10T12:40:32;27.70;51.20
53978;DHT22;39886;47.984;-1.586;2022-07-10T12:43:02;27.70;51.20
53978;DHT22;39886;47.984;-1.586;2022-07-10T12:45:27;27.70;51.20
53978;DHT22;39886;47.984;-1.586;2022-07-10T12:47:53;27.70;51.20
53978;DHT22;39886;47.984;-1.586;2022-07-10T12:50:19;27.70;51.10
53978;DHT22;39886;47.984;-1.586;2022-07-10T12:52:45;27.70;51.10
53978;DHT22;39886;47.984;-1.586;2022-07-10T12:55:18;27.70;51.00
53978;DHT22;39886;47.984;-1.586;2022-07-10T13:00:13;27.70;51.00
53978;DHT22;39886;47.984;-1.586;2022-07-10T13:02:39;27.70;50.90
53978;DHT22;39886;47.984;-1.586;2022-07-10T13:05:04;27.70;50.90
53978;DHT22;39886;47.984;-1.586;2022-07-10T13:07:34;27.70;51.00
53978;DHT22;39886;47.984;-1.586;2022-07-10T13:10:00;27.80;51.00
53978;DHT22;39886;47.984;-1.586;2022-07-10T13:12:26;27.70;51.00
53978;DHT22;39886;47.984;-1.586;2022-07-10T13:14:52;27.70;51.00
53978;DHT22;39886;47.984;-1.586;2022-07-10T13:17:17;27.70;51.00
53978;DHT22;39886;47.984;-1.586;2022-07-10T13:19:43;27.80;51.10
53978;DHT22;39886;47.984;-1.586;2022-07-10T13:22:08;27.70;51.10
53978;DHT22;39886;47.984;-1.586;2022-07-10T13:24:34;27.70;51.10
53978;DHT22;39886;47.984;-1.586;2022-07-10T13:27:00;27.70;51.10
53978;DHT22;39886;47.984;-1.586;2022-07-10T13:29:25;27.70;51.10
53978;DHT22;39886;47.984;-1.586;2022-07-10T13:31:51;27.70;51.10
53978;DHT22;39886;47.984;-1.586;2022-07-10T13:34:16;27.70;51.10
53978;DHT22;39886;47.984;-1.586;2022-07-10T13:36:42;27.70;51.10
53978;DHT22;39886;47.984;-1.586;2022-07-10T13:39:08;27.70;51.10
53978;DHT22;39886;47.984;-1.586;2022-07-10T13:41:34;27.70;51.00
53978;DHT22;39886;47.984;-1.586;2022-07-10T13:43:59;27.70;51.00
53978;DHT22;39886;47.984;-1.586;2022-07-10T13:46:26;27.70;51.00
53978;DHT22;39886;47.984;-1.586;2022-07-10T13:48:52;27.80;51.10
53978;DHT22;39886;47.984;-1.586;2022-07-10T13:51:18;27.80;51.00
53978;DHT22;39886;47.984;-1.586;2022-07-10T13:53:43;27.80;50.90
53978;DHT22;39886;47.984;-1.586;2022-07-10T13:56:09;27.80;51.00
53978;DHT22;39886;47.984;-1.586;2022-07-10T13:58:35;27.80;50.90
53978;DHT22;39886;47.984;-1.586;2022-07-10T14:01:01;27.80;50.90
53978;DHT22;39886;47.984;-1.586;2022-07-10T14:03:29;27.80;50.90
53978;DHT22;39886;47.984;-1.586;2022-07-10T14:05:55;27.80;50.90
53978;DHT22;39886;47.984;-1.586;2022-07-10T14:08:20;27.80;50.90
53978;DHT22;39886;47.984;-1.586;2022-07-10T14:10:46;27.80;50.90
53978;DHT22;39886;47.984;-1.586;2022-07-10T14:13:12;27.80;50.90
53978;DHT22;39886;47.984;-1.586;2022-07-10T14:15:38;27.80;50.90
53978;DHT22;39886;47.984;-1.586;2022-07-10T14:18:03;27.80;50.90
53978;DHT22;39886;47.984;-1.586;2022-07-10T14:20:30;27.80;50.90
53978;DHT22;39886;47.984;-1.586;2022-07-10T14:23:16;27.80;50.90
53978;DHT22;39886;47.984;-1.586;2022-07-10T14:25:42;27.80;50.90
53978;DHT22;39886;47.984;-1.586;2022-07-10T14:28:07;27.80;50.90
53978;DHT22;39886;47.984;-1.586;2022-07-10T14:30:33;27.80;50.90
53978;DHT22;39886;47.984;-1.586;2022-07-10T14:32:59;27.80;50.80
53978;DHT22;39886;47.984;-1.586;2022-07-10T14:35:24;27.80;50.80
53978;DHT22;39886;47.984;-1.586;2022-07-10T14:37:50;27.80;51.50
53978;DHT22;39886;47.984;-1.586;2022-07-10T14:40:15;27.80;50.80
53978;DHT22;39886;47.984;-1.586;2022-07-10T14:42:41;27.80;50.80
53978;DHT22;39886;47.984;-1.586;2022-07-10T14:45:06;27.80;50.80
53978;DHT22;39886;47.984;-1.586;2022-07-10T14:47:32;27.80;50.70
53978;DHT22;39886;47.984;-1.586;2022-07-10T14:49:58;27.80;50.80
53978;DHT22;39886;47.984;-1.586;2022-07-10T14:52:24;27.80;50.70
53978;DHT22;39886;47.984;-1.586;2022-07-10T14:54:53;27.80;50.70
53978;DHT22;39886;47.984;-1.586;2022-07-10T14:57:18;27.80;50.70
53978;DHT22;39886;47.984;-1.586;2022-07-10T14:59:44;27.80;51.40
53978;DHT22;39886;47.984;-1.586;2022-07-10T15:02:09;27.80;50.70
53978;DHT22;39886;47.984;-1.586;2022-07-10T15:04:35;27.80;50.80
53978;DHT22;39886;47.984;-1.586;2022-07-10T15:07:01;27.80;51.40
53978;DHT22;39886;47.984;-1.586;2022-07-10T15:09:26;27.80;50.70
53978;DHT22;39886;47.984;-1.586;2022-07-10T15:11:52;27.80;50.70
53978;DHT22;39886;47.984;-1.586;2022-07-10T15:14:19;27.80;50.70
53978;DHT22;39886;47.984;-1.586;2022-07-10T15:16:44;27.80;50.70
53978;DHT22;39886;47.984;-1.586;2022-07-10T15:19:10;27.80;50.70
53978;DHT22;39886;47.984;-1.586;2022-07-10T15:21:36;27.80;50.70
53978;DHT22;39886;47.984;-1.586;2022-07-10T15:24:02;27.80;50.60
53978;DHT22;39886;47.984;-1.586;2022-07-10T15:26:27;27.80;51.20
53978;DHT22;39886;47.984;-1.586;2022-07-10T15:28:53;27.80;50.50
53978;DHT22;39886;47.984;-1.586;2022-07-10T15:31:20;27.80;50.40
53978;DHT22;39886;47.984;-1.586;2022-07-10T15:33:46;27.80;50.30
53978;DHT22;39886;47.984;-1.586;2022-07-10T15:36:12;27.80;50.30
53978;DHT22;39886;47.984;-1.586;2022-07-10T15:38:39;27.80;50.30
53978;DHT22;39886;47.984;-1.586;2022-07-10T15:41:05;27.80;50.30